Time;durP1;ratioP1;P1;durP2;ratioP2;P2;SDS_P1;SDS_P2;PMS_P1;PMS_P2;Temp;Humidity;BMP_temperature;BMP_pressure;BME280_temperature;BME280_humidity;BME280_pressure;Samples;Min_cycle;Max_cycle;Signal;HPM_P1;HPM_P2
2024/01/20 00:00:14;;;;;;;148.00;6.03;;;;;;;19.64;50.60;100118.72;7290227;19;130023;-42
2024/01/20 00:02:39;;;;;;;190.30;7.60;;;;;;;19.47;50.84;100095.72;7294110;19;130322;-40
2024/01/20 00:05:05;;;;;;;182.13;7.07;;;;;;;19.54;50.66;100125.56;7294687;19;129588;-43
2024/01/20 00:07:31;;;;;;;200.10;7.95;;;;;;;19.77;50.78;100124.69;7291945;19;129047;-41
2024/01/20 00:09:57;;;;;;;187.57;7.80;;;;;;;19.99;49.83;100099.50;7293476;19;130383;-39
2024/01/20 00:12:22;;;;;;;221.05;8.82;;;;;;;20.25;50.02;100136.66;7292494;19;129829;-41
2024/01/20 00:14:47;;;;;;;140.18;5.57;;;;;;;20.10;50.02;100107.31;7294699;19;129190;-43
2024/01/20 00:17:13;;;;;;;189.48;7.45;;;;;;;20.27;49.76;100137.38;7292801;19;129911;-42
2024/01/20 00:19:38;;;;;;;212.52;8.70;;;;;;;20.24;49.59;100140.25;7290939;19;130521;-41
2024/01/20 00:22:03;;;;;;;277.65;10.95;;;;;;;20.19;50.14;100137.16;7293616;19;132125;-38
2024/01/20 00:24:29;;;;;;;192.95;8.18;;;;;;;20.16;49.95;100140.81;7295293;19;131361;-38
2024/01/20 00:26:54;;;;;;;135.00;5.53;;;;;;;20.08;50.03;100144.94;7294075;19;129755;-43
2024/01/20 00:29:20;;;;;;;149.52;6.03;;;;;;;20.02;50.89;100145.38;7290960;19;131458;-42
2024/01/20 00:31:45;;;;;;;229.88;9.00;;;;;;;19.96;50.47;100143.25;7292146;19;131601;-40
2024/01/20 00:34:11;;;;;;;176.45;7.03;;;;;;;19.79;50.81;100123.66;7295032;19;129633;-41
2024/01/20 00:36:36;;;;;;;205.90;8.30;;;;;;;19.90;51.47;100152.38;7293039;19;129235;-37
2024/01/20 00:39:02;;;;;;;154.23;6.20;;;;;;;19.99;50.43;100149.06;7292997;19;130678;-43
2024/01/20 00:41:27;;;;;;;196.38;7.82;;;;;;;19.92;51.07;100170.50;7294916;19;130873;-42
2024/01/20 00:43:53;;;;;;;153.18;6.28;;;;;;;19.68;50.74;100167.13;7294751;19;129825;-40
2024/01/20 00:46:18;;;;;;;188.00;7.45;;;;;;;19.58;50.49;100163.53;7294369;19;133030;-38
2024/01/20 00:48:44;;;;;;;182.27;7.35;;;;;;;19.51;51.42;100170.13;7292004;19;131310;-45
2024/01/20 00:51:09;;;;;;;208.40;8.20;;;;;;;19.43;51.54;100168.94;7292265;19;129997;-43
2024/01/20 00:53:34;;;;;;;192.98;7.85;;;;;;;19.39;51.31;100169.25;7294008;19;129308;-39
2024/01/20 00:56:00;;;;;;;186.57;7.55;;;;;;;19.40;51.54;100174.34;7292569;19;130289;-39
2024/01/20 00:58:25;;;;;;;203.73;8.20;;;;;;;19.37;51.33;100171.97;7293882;19;131184;-40
2024/01/20 01:00:54;;;;;;;199.55;8.07;;;;;;;19.36;51.66;100167.72;7290069;19;129074;-38
2024/01/20 01:03:20;;;;;;;212.07;8.80;;;;;;;19.34;51.53;100180.03;7292983;19;129486;-38
2024/01/20 01:05:45;;;;;;;192.40;7.72;;;;;;;19.70;50.53;100170.47;7291024;19;129617;-42
2024/01/20 01:08:11;;;;;;;217.40;8.57;;;;;;;19.95;50.56;100180.75;7294387;19;133000;-39
2024/01/20 01:10:36;;;;;;;242.05;9.80;;;;;;;19.90;50.52;100183.69;7291795;19;130331;-41
2024/01/20 01:13:02;;;;;;;144.60;5.78;;;;;;;19.90;50.80;100188.09;7293146;19;129763;-40
2024/01/20 01:15:29;;;;;;;196.35;8.15;;;;;;;19.93;50.95;100188.66;7291698;19;129518;-38
2024/01/20 01:17:54;;;;;;;238.70;9.57;;;;;;;19.89;50.30;100187.25;7293288;19;130218;-40
2024/01/20 01:20:19;;;;;;;197.20;7.85;;;;;;;19.90;51.05;100183.69;7289089;19;129670;-39
2024/01/20 01:22:45;;;;;;;220.10;8.85;;;;;;;19.88;50.61;100201.25;7292811;19;131744;-38
2024/01/20 01:25:10;;;;;;;168.80;6.95;;;;;;;19.82;50.93;100195.63;7290010;19;129648;-42
2024/01/20 01:27:36;;;;;;;265.83;10.25;;;;;;;19.78;50.82;100200.25;7287031;19;131565;-43
2024/01/20 01:30:01;;;;;;;150.10;6.15;;;;;;;19.72;51.69;100199.88;7290654;19;130963;-41
2024/01/20 01:32:27;;;;;;;204.52;8.40;;;;;;;19.69;51.56;100205.31;7287166;19;130163;-39
2024/01/20 01:34:52;;;;;;;173.48;7.00;;;;;;;19.69;51.23;100202.69;7292406;19;129676;-36
2024/01/20 01:37:17;;;;;;;158.40;6.43;;;;;;;19.60;51.66;100190.34;7291211;19;130093;-44
2024/01/20 01:39:43;;;;;;;188.65;7.55;;;;;;;19.62;51.99;100201.50;7290014;19;129245;-43
2024/01/20 01:42:09;;;;;;;195.00;7.82;;;;;;;19.54;51.53;100201.22;7290198;19;129367;-41
2024/01/20 01:44:34;;;;;;;226.13;9.27;;;;;;;19.37;51.49;100203.25;7291129;19;129531;-39
2024/01/20 01:47:00;;;;;;;230.05;9.30;;;;;;;19.34;51.38;100206.09;7290892;19;130005;-45
2024/01/20 01:49:26;;;;;;;117.63;4.78;;;;;;;19.30;51.49;100204.66;7290443;19;129485;-43
2024/01/20 01:51:52;;;;;;;141.33;5.80;;;;;;;19.29;52.29;100212.56;7290305;19;129442;-39
2024/01/20 01:54:20;;;;;;;214.35;8.55;;;;;;;19.28;51.74;100209.13;7290939;19;129478;-39
2024/01/20 01:56:51;;;;;;;168.38;6.82;;;;;;;19.28;51.86;100216.94;7292254;19;131661;-40
2024/01/20 01:59:16;;;;;;;179.68;7.40;;;;;;;19.29;51.59;100207.38;7290355;19;130312;-38
2024/01/20 02:01:41;;;;;;;212.27;8.50;;;;;;;19.10;52.12;100175.72;7289959;19;130515;-38
2024/01/20 02:04:07;;;;;;;207.95;8.18;;;;;;;19.20;51.30;100205.41;7291528;19;131065;-40
2024/01/20 02:06:33;;;;;;;175.38;7.45;;;;;;;19.57;50.97;100219.25;7287620;19;129378;-42
2024/01/20 02:08:58;;;;;;;173.55;6.95;;;;;;;19.67;50.73;100207.22;7292210;19;131579;-39
2024/01/20 02:11:25;;;;;;;184.10;7.25;;;;;;;19.62;50.98;100198.91;7289487;19;130278;-40
2024/01/20 02:13:50;;;;;;;215.82;8.48;;;;;;;19.79;50.20;100221.94;7295806;19;129691;-43
2024/01/20 02:16:16;;;;;;;207.77;8.27;;;;;;;19.77;51.32;100224.66;7296587;19;131741;-41
2024/01/20 02:18:41;;;;;;;203.25;8.40;;;;;;;19.77;50.78;100223.84;7298392;19;130744;-40
2024/01/20 02:21:07;;;;;;;190.05;7.75;;;;;;;19.75;51.03;100218.72;7298192;19;130071;-38
2024/01/20 02:23:40;;;;;;;235.77;9.90;;;;;;;19.74;51.05;100218.84;7297654;19;129738;-38
2024/01/20 02:26:06;;;;;;;248.43;9.95;;;;;;;19.66;51.00;100216.81;7292472;19;130612;-42
2024/01/20 02:28:31;;;;;;;202.13;7.90;;;;;;;19.59;51.48;100214.75;7297759;19;131313;-40
2024/01/20 02:30:56;;;;;;;195.63;7.90;;;;;;;19.62;51.70;100224.97;7295902;19;129447;-42
2024/01/20 02:33:22;;;;;;;200.73;8.18;;;;;;;19.59;51.64;100214.75;7297172;19;129116;-42
2024/01/20 02:35:47;;;;;;;211.05;8.60;;;;;;;19.60;52.03;100206.00;7297759;19;131562;-42
2024/01/20 02:38:12;;;;;;;179.68;7.15;;;;;;;19.64;51.94;100217.84;7298910;19;131949;-40
2024/01/20 02:40:38;;;;;;;190.57;7.68;;;;;;;19.67;51.89;100217.66;7298277;19;129955;-40
2024/01/20 02:43:03;;;;;;;179.90;7.10;;;;;;;19.61;51.26;100218.06;7297227;19;129656;-38
2024/01/20 02:45:28;;;;;;;209.63;8.70;;;;;;;19.45;51.36;100221.78;7296757;19;130343;-43
2024/01/20 02:47:54;;;;;;;164.38;6.65;;;;;;;19.33;51.63;100214.88;7296337;19;129370;-42
2024/01/20 02:50:20;;;;;;;189.40;7.45;;;;;;;19.32;51.46;100222.81;7296412;19;133317;-40
2024/01/20 02:52:45;;;;;;;267.85;10.77;;;;;;;19.28;51.88;100229.13;7296605;19;129546;-39
2024/01/20 02:55:11;;;;;;;185.73;7.50;;;;;;;19.28;51.95;100232.59;7298572;19;130136;-40
2024/01/20 02:57:36;;;;;;;207.40;8.57;;;;;;;19.24;51.95;100228.53;7296177;19;130275;-40
2024/01/20 03:00:04;;;;;;;192.35;7.90;;;;;;;19.26;52.03;100233.63;7294363;19;131145;-39
2024/01/20 03:02:29;;;;;;;173.77;6.85;;;;;;;19.26;51.41;100234.47;7297120;19;130862;-43
2024/01/20 03:04:59;;;;;;;177.13;7.32;;;;;;;19.12;51.54;100220.75;7295515;19;130965;-44
2024/01/20 03:07:24;;;;;;;182.55;7.38;;;;;;;19.58;51.46;100228.75;7295973;19;129612;-42
2024/01/20 03:09:49;;;;;;;172.77;6.75;;;;;;;19.69;51.01;100231.38;7290953;19;129799;-42
2024/01/20 03:12:15;;;;;;;246.82;10.00;;;;;;;19.74;51.19;100239.72;7289212;19;129114;-42
2024/01/20 03:14:40;;;;;;;213.85;8.68;;;;;;;19.75;51.10;100239.59;7295819;19;130606;-38
2024/01/20 03:17:05;;;;;;;184.75;7.43;;;;;;;19.74;50.71;100240.56;7295874;19;131369;-38
2024/01/20 03:19:31;;;;;;;147.30;5.78;;;;;;;19.67;51.08;100248.97;7294517;19;130117;-45
2024/01/20 03:21:57;;;;;;;166.33;6.47;;;;;;;19.65;51.13;100241.22;7297673;19;131327;-41
2024/01/20 03:24:22;;;;;;;163.85;6.55;;;;;;;19.61;51.21;100244.16;7295831;19;130331;-39
2024/01/20 03:26:49;;;;;;;161.65;6.53;;;;;;;19.64;51.62;100244.78;7295246;19;130238;-39
2024/01/20 03:29:14;;;;;;;256.10;10.00;;;;;;;19.61;51.53;100247.63;7293502;19;130963;-40
2024/01/20 03:31:40;;;;;;;191.90;7.85;;;;;;;19.64;51.64;100249.16;7294620;19;129891;-42
2024/01/20 03:34:05;;;;;;;178.27;7.00;;;;;;;19.69;51.44;100247.03;7295257;19;130375;-38
2024/01/20 03:36:30;;;;;;;180.45;7.22;;;;;;;19.66;51.81;100244.66;7293805;19;130313;-41
2024/01/20 03:38:56;;;;;;;209.25;8.35;;;;;;;19.80;51.07;100247.91;7294637;19;129775;-40
2024/01/20 03:41:21;;;;;;;175.25;7.03;;;;;;;19.82;51.26;100253.03;7296638;19;132147;-40
2024/01/20 03:43:46;;;;;;;191.38;7.97;;;;;;;19.57;51.00;100253.16;7294678;19;130348;-39
2024/01/20 03:46:12;;;;;;;159.32;6.22;;;;;;;19.44;51.58;100253.19;7294861;19;130357;-40
2024/01/20 03:48:37;;;;;;;242.15;9.55;;;;;;;19.38;51.71;100264.06;7295229;19;129223;-40
2024/01/20 03:51:03;;;;;;;183.48;7.60;;;;;;;19.33;51.27;100263.56;7295843;19;130981;-38
2024/01/20 03:53:28;;;;;;;185.80;7.72;;;;;;;19.29;52.12;100265.56;7294182;19;131420;-44
2024/01/20 03:55:53;;;;;;;142.57;5.88;;;;;;;19.27;51.89;100277.81;7291816;19;130736;-42
2024/01/20 03:58:19;;;;;;;235.07;9.02;;;;;;;19.27;51.71;100274.41;7295477;19;129010;-40
2024/01/20 04:00:44;;;;;;;221.50;9.32;;;;;;;19.25;52.02;100279.69;7295726;19;129322;-40
2024/01/20 04:03:10;;;;;;;181.98;7.22;;;;;;;19.26;51.29;100281.38;7293951;19;130240;-40
2024/01/20 04:05:37;;;;;;;175.60;7.07;;;;;;;19.52;51.43;100271.72;7293243;19;131052;-39
2024/01/20 04:08:02;;;;;;;141.83;5.63;;;;;;;19.51;51.35;100248.38;7295667;19;130391;-39
2024/01/20 04:10:28;;;;;;;256.67;10.65;;;;;;;19.77;51.13;100276.00;7291278;19;129917;-38
2024/01/20 04:12:53;;;;;;;173.35;6.72;;;;;;;19.78;51.14;100280.31;7288592;19;130895;-42
2024/01/20 04:15:18;;;;;;;180.98;7.10;;;;;;;19.69;51.30;100270.50;7294401;19;130367;-43
2024/01/20 04:17:44;;;;;;;264.70;10.45;;;;;;;19.74;51.15;100277.06;7289848;19;130724;-43
2024/01/20 04:20:09;;;;;;;184.73;7.32;;;;;;;19.70;51.51;100282.63;7293664;19;131686;-38
2024/01/20 04:22:35;;;;;;;178.85;7.35;;;;;;;19.65;51.10;100279.53;7292225;19;131519;-45
2024/01/20 04:25:00;;;;;;;219.43;8.88;;;;;;;19.67;51.63;100278.47;7291933;19;130663;-41
2024/01/20 04:27:25;;;;;;;181.20;7.28;;;;;;;19.68;51.40;100284.53;7295378;19;130418;-39
2024/01/20 04:29:51;;;;;;;236.73;9.63;;;;;;;19.66;51.87;100274.19;7292416;19;129587;-40
2024/01/20 04:32:16;;;;;;;158.63;6.35;;;;;;;19.70;51.47;100274.81;7291894;19;131171;-38
2024/01/20 04:34:41;;;;;;;263.77;10.27;;;;;;;19.76;51.66;100274.34;7290829;19;129591;-38
2024/01/20 04:37:07;;;;;;;177.38;7.13;;;;;;;19.79;51.35;100280.19;7292572;19;129420;-41
2024/01/20 04:39:32;;;;;;;130.50;5.25;;;;;;;19.79;51.44;100284.56;7292680;19;130379;-42
2024/01/20 04:41:57;;;;;;;194.80;7.75;;;;;;;19.63;51.32;100302.28;7293482;19;131842;-41
2024/01/20 04:44:23;;;;;;;255.73;9.90;;;;;;;19.32;50.76;100273.16;7291668;19;131129;-40
2024/01/20 04:46:48;;;;;;;206.02;8.27;;;;;;;19.40;51.35;100296.09;7293936;19;129771;-41
2024/01/20 04:49:13;;;;;;;130.15;5.28;;;;;;;19.40;51.02;100294.28;7290053;19;129567;-43
2024/01/20 04:51:39;;;;;;;219.02;8.60;;;;;;;19.39;51.63;100297.03;7291053;19;129599;-42
2024/01/20 04:54:04;;;;;;;231.27;9.00;;;;;;;19.39;51.77;100297.88;7289937;19;131928;-40
2024/01/20 04:56:30;;;;;;;162.70;6.45;;;;;;;19.41;50.72;100300.34;7292773;19;129629;-38
2024/01/20 04:58:56;;;;;;;163.80;6.68;;;;;;;19.44;50.72;100300.97;7292102;19;130191;-39
2024/01/20 05:01:21;;;;;;;194.27;7.65;;;;;;;19.27;51.38;100280.44;7292640;19;132430;-43
2024/01/20 05:03:47;;;;;;;272.75;11.02;;;;;;;19.67;50.58;100295.91;7292834;19;131508;-41
2024/01/20 05:06:13;;;;;;;197.13;7.88;;;;;;;20.14;49.65;100306.31;7292217;19;131154;-40
2024/01/20 05:08:38;;;;;;;138.47;5.50;;;;;;;20.20;49.65;100311.09;7292365;19;133337;-40
2024/01/20 05:11:04;;;;;;;217.07;8.55;;;;;;;20.35;49.74;100309.97;7292166;19;131321;-43
2024/01/20 05:13:30;;;;;;;140.65;5.88;;;;;;;20.38;49.06;100321.03;7293063;19;131087;-42
2024/01/20 05:15:56;;;;;;;219.38;8.75;;;;;;;20.33;49.44;100315.31;7291495;19;131269;-39
2024/01/20 05:18:21;;;;;;;152.45;6.18;;;;;;;20.21;49.72;100297.13;7292416;19;130401;-44
2024/01/20 05:20:47;;;;;;;245.60;9.60;;;;;;;20.35;49.65;100315.19;7290746;19;131247;-42
2024/01/20 05:23:12;;;;;;;158.48;6.38;;;;;;;20.25;49.88;100316.81;7292049;19;130289;-43
2024/01/20 05:25:38;;;;;;;245.82;9.98;;;;;;;20.12;49.64;100322.09;7290071;19;129988;-38
2024/01/20 05:28:03;;;;;;;243.23;10.23;;;;;;;20.12;50.50;100335.16;7290911;19;129717;-39
2024/01/20 05:30:29;;;;;;;193.13;7.45;;;;;;;20.09;50.01;100339.75;7286676;19;131477;-42
2024/01/20 05:32:54;;;;;;;199.05;7.88;;;;;;;20.05;50.46;100343.50;7291190;19;131382;-40
2024/01/20 05:35:19;;;;;;;194.93;7.85;;;;;;;20.00;50.79;100335.22;7289576;19;129456;-38
2024/01/20 05:37:45;;;;;;;173.10;7.00;;;;;;;19.90;50.85;100339.44;7290662;19;129880;-39
2024/01/20 05:40:11;;;;;;;250.45;9.80;;;;;;;19.74;51.08;100344.06;7286170;19;129621;-39
2024/01/20 05:42:36;;;;;;;169.82;6.85;;;;;;;19.54;51.40;100339.44;7289203;19;131199;-44
2024/01/20 05:45:01;;;;;;;166.70;6.70;;;;;;;19.46;51.32;100342.59;7289816;19;129763;-43
2024/01/20 05:47:27;;;;;;;216.57;8.55;;;;;;;19.40;51.59;100343.03;7283163;19;130223;-39
2024/01/20 05:49:52;;;;;;;264.85;10.60;;;;;;;19.36;51.24;100355.44;7292803;19;133452;-38
2024/01/20 05:52:17;;;;;;;201.90;7.95;;;;;;;19.37;51.37;100351.03;7296087;19;130781;-44
2024/01/20 05:54:43;;;;;;;133.20;5.40;;;;;;;19.37;51.50;100345.81;7293418;19;129203;-44
2024/01/20 05:57:08;;;;;;;161.13;6.13;;;;;;;19.38;50.99;100345.75;7295754;19;129161;-43
2024/01/20 05:59:34;;;;;;;203.13;8.07;;;;;;;19.43;51.69;100343.66;7291835;19;130110;-40
2024/01/20 06:01:59;;;;;;;210.20;8.40;;;;;;;19.24;51.50;100319.75;7294532;19;131115;-41
2024/01/20 06:04:25;;;;;;;255.02;10.38;;;;;;;19.45;51.15;100352.19;7289523;19;129558;-42
2024/01/20 06:06:50;;;;;;;262.13;10.50;;;;;;;19.50;51.15;100343.22;7292261;19;129676;-42
2024/01/20 06:09:16;;;;;;;219.52;8.77;;;;;;;19.50;51.76;100351.03;7297941;19;131773;-41
2024/01/20 06:11:41;;;;;;;197.75;8.05;;;;;;;19.43;51.44;100351.47;7294723;19;130521;-42
2024/01/20 06:14:07;;;;;;;154.48;6.53;;;;;;;19.44;50.81;100355.72;7293420;19;129300;-38
2024/01/20 06:16:35;;;;;;;249.88;10.63;;;;;;;19.32;51.49;100324.50;7297899;19;132499;-40
2024/01/20 06:19:01;;;;;;;205.52;8.45;;;;;;;19.46;51.27;100350.41;7294712;19;130306;-40
2024/01/20 06:21:27;;;;;;;203.48;8.45;;;;;;;19.42;50.81;100351.56;7294198;19;134570;-42
2024/01/20 06:23:52;;;;;;;196.65;8.30;;;;;;;19.40;50.92;100351.66;7289902;19;129571;-44
2024/01/20 06:26:18;;;;;;;275.17;11.13;;;;;;;19.40;50.64;100351.66;7294622;19;129654;-41
2024/01/20 06:28:44;;;;;;;168.13;7.97;;;;;;;19.43;51.47;100356.69;7296351;19;130798;-38
2024/01/20 06:31:09;;;;;;;181.52;7.30;;;;;;;19.38;51.44;100364.00;7292580;19;129228;-42
2024/01/20 06:33:35;;;;;;;196.70;8.05;;;;;;;19.40;51.31;100371.72;7294476;19;129446;-44
2024/01/20 06:36:00;;;;;;;360.92;15.32;;;;;;;19.50;51.33;100377.09;7291368;19;130420;-39
2024/01/20 06:38:28;;;;;;;224.18;9.05;;;;;;;19.51;50.94;100391.81;7294523;19;133403;-38
2024/01/20 06:40:53;;;;;;;225.73;9.38;;;;;;;19.51;50.72;100394.41;7292110;19;130477;-43
2024/01/20 06:43:19;;;;;;;140.32;5.82;;;;;;;19.47;50.64;100388.56;7292473;19;129098;-40
2024/01/20 06:45:45;;;;;;;257.20;10.73;;;;;;;19.33;51.18;100386.94;7292508;19;129623;-44
2024/01/20 06:48:11;;;;;;;;;;;;;;;19.34;51.12;100396.44;7294509;19;130798;-44
2024/01/20 06:50:42;;;;;;;254.32;10.55;;;;;;;19.37;50.91;100401.41;7292900;19;130371;-42
2024/01/20 06:53:08;;;;;;;159.30;6.75;;;;;;;19.44;50.01;100400.06;7292221;19;132113;-38
2024/01/20 06:55:34;;;;;;;275.55;12.02;;;;;;;19.48;50.48;100406.72;7295597;19;129097;-38
2024/01/20 06:57:59;;;;;;;211.43;8.55;;;;;;;19.50;50.21;100398.81;7292836;19;132646;-40
2024/01/20 07:00:24;;;;;;;169.80;7.15;;;;;;;19.51;49.66;100386.59;7292693;19;130870;-45
2024/01/20 07:02:50;;;;;;;179.45;7.75;;;;;;;19.98;47.92;100400.53;7294415;19;129677;-38
2024/01/20 07:05:16;;;;;;;220.02;9.02;;;;;;;20.47;45.90;100413.53;7296733;19;129973;-41
2024/01/20 07:07:41;;;;;;;169.77;7.75;;;;;;;20.39;45.34;100414.13;7297020;19;131597;-40
2024/01/20 07:10:08;;;;;;;148.27;6.45;;;;;;;20.66;44.95;100416.44;7293874;19;130335;-43
2024/01/20 07:12:34;;;;;;;221.50;9.80;;;;;;;20.44;46.31;100411.16;7291976;19;129149;-38
2024/01/20 07:14:59;;;;;;;261.27;11.73;;;;;;;20.92;46.29;100419.75;7296658;19;132480;-41
2024/01/20 07:17:25;;;;;;;165.93;7.97;;;;;;;21.35;45.74;100413.78;7294881;19;130128;-44
2024/01/20 07:19:50;;;;;;;150.10;7.50;;;;;;;21.28;45.37;100389.06;7293506;19;131641;-43
2024/01/20 07:22:15;;;;;;;255.48;12.68;;;;;;;21.44;45.66;100423.53;7291969;19;129572;-41
2024/01/20 07:24:41;;;;;;;197.00;9.43;;;;;;;21.11;40.57;100420.88;7292299;19;129251;-42
2024/01/20 07:27:06;;;;;;;193.82;9.98;;;;;;;21.16;39.74;100421.38;7293166;19;132842;-38
2024/01/20 07:29:31;;;;;;;180.38;13.85;;;;;;;21.19;40.71;100428.97;7290367;19;131110;-42
2024/01/20 07:31:57;;;;;;;255.65;15.95;;;;;;;21.22;42.25;100428.72;7291665;19;129614;-44
2024/01/20 07:34:22;;;;;;;222.20;14.40;;;;;;;21.26;42.87;100440.63;7293590;19;129958;-39
2024/01/20 07:36:47;;;;;;;272.58;16.20;;;;;;;21.22;43.57;100444.44;7293581;19;130172;-38
2024/01/20 07:39:13;;;;;;;184.88;13.98;;;;;;;21.12;43.67;100447.88;7292758;19;130730;-41
2024/01/20 07:41:38;;;;;;;235.43;15.13;;;;;;;20.99;44.82;100445.31;7292002;19;129546;-42
2024/01/20 07:44:04;;;;;;;211.57;15.93;;;;;;;20.89;45.36;100449.53;7295660;19;130356;-40
2024/01/20 07:46:29;;;;;;;160.38;12.93;;;;;;;20.83;45.28;100450.00;7292446;19;130747;-40
2024/01/20 07:48:54;;;;;;;302.10;18.25;;;;;;;20.66;45.93;100440.81;7291681;19;129635;-39
2024/01/20 07:51:20;;;;;;;285.45;16.85;;;;;;;20.55;46.77;100455.59;7293271;19;129981;-39
2024/01/20 07:53:47;;;;;;;319.15;18.13;;;;;;;20.49;46.30;100456.06;7292015;19;130306;-39
2024/01/20 07:56:14;;;;;;;178.32;13.57;;;;;;;20.45;46.90;100457.22;7290890;19;130316;-39
2024/01/20 07:58:39;;;;;;;239.05;14.88;;;;;;;20.38;46.91;100458.59;7288763;19;130806;-38
2024/01/20 08:01:04;;;;;;;207.30;14.15;;;;;;;20.15;47.97;100454.19;7294161;19;129602;-38
2024/01/20 08:03:30;;;;;;;232.30;15.00;;;;;;;19.95;47.58;100457.38;7290484;19;132554;-38
2024/01/20 08:05:55;;;;;;;250.50;14.68;;;;;;;19.85;47.69;100472.00;7280556;19;131004;-39
2024/01/20 08:08:21;;;;;;;259.70;14.98;;;;;;;19.77;48.20;100466.47;7288783;19;130989;-38
2024/01/20 08:10:46;;;;;;;220.07;13.88;;;;;;;19.90;48.25;100470.72;7283433;19;129726;-38
2024/01/20 08:13:11;;;;;;;188.13;11.70;;;;;;;20.14;47.76;100468.16;7289151;19;131077;-38
2024/01/20 08:15:37;;;;;;;329.27;19.23;;;;;;;19.90;48.40;100443.81;7288175;19;134757;-38
2024/01/20 08:18:03;;;;;;;288.13;16.52;;;;;;;20.14;47.99;100468.16;7289973;19;132446;-38
2024/01/20 08:20:28;;;;;;;208.87;12.80;;;;;;;20.00;48.71;100444.84;7290987;19;130409;-39
2024/01/20 08:22:53;;;;;;;217.15;13.50;;;;;;;20.17;48.75;100478.41;7288900;19;132320;-40
2024/01/20 08:25:19;;;;;;;224.93;14.02;;;;;;;20.15;48.45;100478.53;7289943;19;130830;-38
2024/01/20 08:27:44;;;;;;;176.63;11.57;;;;;;;20.05;48.63;100474.88;7289866;19;129463;-39
2024/01/20 08:30:10;;;;;;;172.57;11.13;;;;;;;20.16;48.84;100479.38;7290748;19;129190;-39
2024/01/20 08:32:35;;;;;;;375.30;20.23;;;;;;;20.14;48.96;100479.44;7287908;19;131707;-38
2024/01/20 08:35:01;;;;;;;246.98;14.20;;;;;;;20.09;48.84;100480.72;7291289;19;130619;-38
2024/01/20 08:37:26;;;;;;;182.23;12.38;;;;;;;20.03;49.14;100478.53;7292479;19;130581;-39
2024/01/20 08:39:52;;;;;;;210.68;12.00;;;;;;;19.99;49.16;100477.09;7289255;19;133459;-38
2024/01/20 08:42:17;;;;;;;192.80;12.35;;;;;;;19.80;49.46;100487.16;7294042;19;131997;-39
2024/01/20 08:44:43;;;;;;;240.48;12.75;;;;;;;19.65;49.45;100475.97;7291223;19;130141;-39
2024/01/20 08:47:09;;;;;;;204.40;12.57;;;;;;;19.57;49.35;100472.25;7291170;19;133224;-38
2024/01/20 08:49:34;;;;;;;211.23;12.00;;;;;;;19.54;49.49;100490.69;7288667;19;129273;-39
2024/01/20 08:51:59;;;;;;;228.02;14.05;;;;;;;19.50;50.26;100502.28;7291305;19;131321;-39
2024/01/20 08:54:25;;;;;;;227.05;13.07;;;;;;;19.43;50.28;100501.88;7291076;19;131217;-38
2024/01/20 08:56:50;;;;;;;186.77;11.23;;;;;;;19.69;49.41;100507.91;7287981;19;131466;-38
2024/01/20 08:59:16;;;;;;;122.20;8.43;;;;;;;19.88;49.48;100509.16;7286601;19;129817;-38
2024/01/20 09:01:41;;;;;;;212.30;12.40;;;;;;;19.85;49.90;100513.75;7287118;19;130618;-40
2024/01/20 09:04:06;;;;;;;259.65;13.52;;;;;;;19.59;49.70;100483.38;7286856;19;130103;-38
2024/01/20 09:06:31;;;;;;;250.90;13.07;;;;;;;19.86;49.17;100511.03;7289226;19;132219;-40
2024/01/20 09:08:57;;;;;;;228.68;13.25;;;;;;;19.72;49.46;100499.91;7288387;19;131374;-40
2024/01/20 09:11:22;;;;;;;269.45;14.10;;;;;;;19.81;50.01;100528.78;7286683;19;129719;-36
2024/01/20 09:13:51;;;;;;;123.70;8.05;;;;;;;19.88;49.68;100534.41;7290537;19;132711;-39
2024/01/20 09:16:17;;;;;;;239.73;12.88;;;;;;;19.83;49.44;100532.13;7289649;19;133213;-39
2024/01/20 09:18:42;;;;;;;229.90;12.33;;;;;;;19.86;49.65;100531.06;7287361;19;133249;-38
2024/01/20 09:21:11;;;;;;;242.57;12.85;;;;;;;19.90;49.56;100533.34;7288484;19;131859;-39
2024/01/20 09:23:37;;;;;;;180.35;10.85;;;;;;;19.85;49.72;100537.25;7282969;19;130884;-39
2024/01/20 09:26:02;;;;;;;287.45;14.73;;;;;;;19.93;49.50;100527.91;7290599;19;131069;-39
2024/01/20 09:28:28;;;;;;;163.38;9.38;;;;;;;19.92;50.14;100531.47;7289492;19;129240;-38
2024/01/20 09:30:53;;;;;;;188.00;10.02;;;;;;;19.99;49.53;100534.50;7289721;19;129804;-39
2024/01/20 09:33:18;;;;;;;182.43;9.68;;;;;;;19.83;49.82;100541.72;7284798;19;130163;-39
2024/01/20 09:35:44;;;;;;;296.23;15.15;;;;;;;19.67;49.97;100546.34;7287831;19;132677;-39
2024/01/20 09:38:09;;;;;;;215.32;10.52;;;;;;;19.60;49.09;100535.47;7287912;19;130879;-39
2024/01/20 09:40:35;;;;;;;92.65;6.05;;;;;;;19.54;49.62;100548.06;7287369;19;129799;-39
2024/01/20 09:43:02;;;;;;;217.30;11.00;;;;;;;19.31;49.62;100518.34;7289577;19;131323;-39
2024/01/20 09:45:27;;;;;;;315.20;15.07;;;;;;;19.47;49.79;100557.28;7287367;19;130352;-39
2024/01/20 09:47:53;;;;;;;232.90;11.60;;;;;;;19.56;50.00;100557.47;7289336;19;130971;-39
2024/01/20 09:50:19;;;;;;;236.30;12.18;;;;;;;19.86;49.20;100552.78;7285792;19;131350;-39
2024/01/20 09:53:00;;;;;;;185.37;9.97;;;;;;;19.86;49.42;100562.38;7287453;19;130653;-38
2024/01/20 09:55:27;;;;;;;233.32;10.80;;;;;;;19.94;49.58;100555.69;7289219;19;132946;-39
2024/01/20 09:57:53;;;;;;;252.48;12.10;;;;;;;19.96;49.41;100556.44;7288726;19;129750;-39
2024/01/20 10:00:24;;;;;;;145.97;7.80;;;;;;;19.83;49.44;100557.38;7287633;19;130474;-39
2024/01/20 10:02:49;;;;;;;214.70;10.40;;;;;;;19.83;49.68;100552.16;7290954;19;130295;-39
2024/01/20 10:05:15;;;;;;;264.35;12.38;;;;;;;19.88;49.67;100544.84;7281660;19;131291;-38
2024/01/20 10:07:42;;;;;;;231.37;11.30;;;;;;;19.92;49.41;100541.06;7285908;19;130067;-38
2024/01/20 10:10:09;;;;;;;220.43;11.03;;;;;;;19.83;49.46;100539.97;7286273;19;129246;-38
2024/01/20 10:12:36;;;;;;;246.15;11.50;;;;;;;19.77;49.40;100526.47;7279048;19;130715;-39
2024/01/20 10:15:01;;;;;;;274.88;12.93;;;;;;;19.88;49.89;100523.97;7283291;19;133924;-38
2024/01/20 10:17:27;;;;;;;264.30;12.77;;;;;;;19.90;49.83;100530.75;7280852;19;130789;-39
2024/01/20 10:19:52;;;;;;;183.10;9.07;;;;;;;19.99;49.52;100529.28;7285709;19;132056;-39
2024/01/20 10:22:18;;;;;;;363.15;17.33;;;;;;;20.02;49.51;100527.28;7277638;19;133831;-38
2024/01/20 10:24:47;;;;;;;154.17;8.17;;;;;;;19.80;49.34;100505.41;7280193;19;131749;-38
2024/01/20 10:27:23;;;;;;;219.70;10.85;;;;;;;19.68;49.40;100521.91;7284151;19;131386;-39
2024/01/20 10:29:49;;;;;;;281.77;13.35;;;;;;;19.59;49.60;100531.19;7281588;19;130153;-38
2024/01/20 10:32:15;;;;;;;184.43;9.60;;;;;;;19.56;49.91;100530.56;7288124;19;129209;-38
2024/01/20 10:34:42;;;;;;;156.13;7.97;;;;;;;19.53;50.28;100538.59;7292999;19;130340;-38
2024/01/20 10:37:12;;;;;;;205.80;9.88;;;;;;;19.51;50.28;100541.31;7291027;19;129927;-39
2024/01/20 10:39:45;;;;;;;257.65;11.43;;;;;;;19.50;50.04;100544.84;7289165;19;130614;-40
2024/01/20 10:42:15;;;;;;;382.80;17.35;;;;;;;19.55;50.57;100536.72;7289877;19;131129;-44
2024/01/20 10:45:00;;;;;;;159.85;7.68;;;;;;;19.92;49.56;100541.91;7285286;19;133490;-38
2024/01/20 10:47:58;;;;;;;193.75;8.85;;;;;;;20.03;49.71;100538.56;7293898;19;130203;-39
2024/01/20 10:50:26;;;;;;;357.57;16.70;;;;;;;20.05;49.44;100549.72;7288149;19;129790;-44
2024/01/20 10:52:52;;;;;;;159.48;7.88;;;;;;;20.20;48.93;100535.63;7294896;19;130210;-39